sensor_id;sensor_type;location;lat;lon;timestamp;temperature;humidity
31661;DHT22;18267;52.234;7.444;2023-03-11T00:00:27;1.80;99.90
31661;DHT22;18267;52.234;7.444;2023-03-11T00:02:55;1.80;99.90
31661;DHT22;18267;52.234;7.444;2023-03-11T00:05:27;1.70;99.90
31661;DHT22;18267;52.234;7.444;2023-03-11T00:07:53;1.80;99.90
31661;DHT22;18267;52.234;7.444;2023-03-11T00:10:21;1.80;99.90
31661;DHT22;18267;52.234;7.444;2023-03-11T00:12:48;2.00;99.90
31661;DHT22;18267;52.234;7.444;2023-03-11T00:15:14;1.90;99.90
31661;DHT22;18267;52.234;7.444;2023-03-11T00:17:40;1.90;99.90
31661;DHT22;18267;52.234;7.444;2023-03-11T00:20:07;1.80;99.90
31661;DHT22;18267;52.234;7.444;2023-03-11T00:22:33;1.70;99.90
31661;DHT22;18267;52.234;7.444;2023-03-11T00:24:58;1.60;99.90
31661;DHT22;18267;52.234;7.444;2023-03-11T00:27:24;1.60;99.90
31661;DHT22;18267;52.234;7.444;2023-03-11T00:29:49;1.60;99.90
31661;DHT22;18267;52.234;7.444;2023-03-11T00:32:15;1.60;99.90
31661;DHT22;18267;52.234;7.444;2023-03-11T00:34:41;1.60;99.90
31661;DHT22;18267;52.234;7.444;2023-03-11T00:37:07;1.70;99.90
31661;DHT22;18267;52.234;7.444;2023-03-11T00:39:33;1.70;99.90
31661;DHT22;18267;52.234;7.444;2023-03-11T00:41:58;1.60;99.90
31661;DHT22;18267;52.234;7.444;2023-03-11T00:44:24;1.70;99.90
31661;DHT22;18267;52.234;7.444;2023-03-11T00:46:50;1.80;99.90
31661;DHT22;18267;52.234;7.444;2023-03-11T00:49:15;1.80;99.90
31661;DHT22;18267;52.234;7.444;2023-03-11T00:51:41;1.80;99.90
31661;DHT22;18267;52.234;7.444;2023-03-11T00:54:06;1.80;99.90
31661;DHT22;18267;52.234;7.444;2023-03-11T00:56:32;1.80;99.90
31661;DHT22;18267;52.234;7.444;2023-03-11T00:58:57;1.80;99.90
31661;DHT22;18267;52.234;7.444;2023-03-11T01:01:23;1.80;99.90
31661;DHT22;18267;52.234;7.444;2023-03-11T01:03:48;1.90;99.90
31661;DHT22;18267;52.234;7.444;2023-03-11T01:06:14;2.00;99.90
31661;DHT22;18267;52.234;7.444;2023-03-11T01:08:40;1.90;99.90
31661;DHT22;18267;52.234;7.444;2023-03-11T01:11:06;1.80;99.90
31661;DHT22;18267;52.234;7.444;2023-03-11T01:13:33;1.70;99.90
31661;DHT22;18267;52.234;7.444;2023-03-11T01:15:59;1.70;99.90
31661;DHT22;18267;52.234;7.444;2023-03-11T01:18:25;1.60;99.90
31661;DHT22;18267;52.234;7.444;2023-03-11T01:20:51;1.70;99.90
31661;DHT22;18267;52.234;7.444;2023-03-11T01:23:17;1.60;99.90
31661;DHT22;18267;52.234;7.444;2023-03-11T01:25:43;1.60;99.90
31661;DHT22;18267;52.234;7.444;2023-03-11T01:28:09;1.60;99.90
31661;DHT22;18267;52.234;7.444;2023-03-11T01:30:36;1.60;99.90
31661;DHT22;18267;52.234;7.444;2023-03-11T01:33:03;1.50;99.90
31661;DHT22;18267;52.234;7.444;2023-03-11T01:35:30;1.50;99.90
31661;DHT22;18267;52.234;7.444;2023-03-11T01:37:56;1.50;99.90
31661;DHT22;18267;52.234;7.444;2023-03-11T01:43:03;1.50;99.90
31661;DHT22;18267;52.234;7.444;2023-03-11T01:48:13;1.70;99.90
31661;DHT22;18267;52.234;7.444;2023-03-11T01:50:43;1.70;99.90
31661;DHT22;18267;52.234;7.444;2023-03-11T01:53:10;1.70;99.90
31661;DHT22;18267;52.234;7.444;2023-03-11T01:55:37;1.80;99.90
31661;DHT22;18267;52.234;7.444;2023-03-11T01:58:07;1.80;99.90
31661;DHT22;18267;52.234;7.444;2023-03-11T02:00:34;1.90;99.90
31661;DHT22;18267;52.234;7.444;2023-03-11T02:03:01;2.00;99.90
31661;DHT22;18267;52.234;7.444;2023-03-11T02:05:31;2.00;99.90
31661;DHT22;18267;52.234;7.444;2023-03-11T02:07:58;2.00;99.90
31661;DHT22;18267;52.234;7.444;2023-03-11T02:10:24;2.00;99.90
31661;DHT22;18267;52.234;7.444;2023-03-11T02:12:50;2.10;99.90
31661;DHT22;18267;52.234;7.444;2023-03-11T02:15:17;2.10;99.90
31661;DHT22;18267;52.234;7.444;2023-03-11T02:17:42;2.10;99.90
31661;DHT22;18267;52.234;7.444;2023-03-11T02:22:41;2.10;99.90
31661;DHT22;18267;52.234;7.444;2023-03-11T02:25:35;2.10;99.90
31661;DHT22;18267;52.234;7.444;2023-03-11T02:28:05;2.10;99.90
31661;DHT22;18267;52.234;7.444;2023-03-11T02:30:33;1.90;99.90
31661;DHT22;18267;52.234;7.444;2023-03-11T02:32:59;1.90;99.90
31661;DHT22;18267;52.234;7.444;2023-03-11T02:35:25;1.80;99.90
31661;DHT22;18267;52.234;7.444;2023-03-11T02:37:52;1.80;99.90
31661;DHT22;18267;52.234;7.444;2023-03-11T02:42:46;1.80;99.90
31661;DHT22;18267;52.234;7.444;2023-03-11T02:45:15;1.80;99.90
31661;DHT22;18267;52.234;7.444;2023-03-11T02:47:42;1.80;99.90
31661;DHT22;18267;52.234;7.444;2023-03-11T02:50:11;1.70;99.90
31661;DHT22;18267;52.234;7.444;2023-03-11T02:52:38;1.70;99.90
31661;DHT22;18267;52.234;7.444;2023-03-11T02:55:05;1.80;99.90
31661;DHT22;18267;52.234;7.444;2023-03-11T02:57:31;2.00;99.90
31661;DHT22;18267;52.234;7.444;2023-03-11T02:59:56;1.90;99.90
31661;DHT22;18267;52.234;7.444;2023-03-11T03:02:22;2.00;99.90
31661;DHT22;18267;52.234;7.444;2023-03-11T03:04:47;1.90;99.90
31661;DHT22;18267;52.234;7.444;2023-03-11T03:07:13;1.90;99.90
31661;DHT22;18267;52.234;7.444;2023-03-11T03:09:39;1.90;99.90
31661;DHT22;18267;52.234;7.444;2023-03-11T03:12:04;1.90;99.90
31661;DHT22;18267;52.234;7.444;2023-03-11T03:14:30;1.90;99.90
31661;DHT22;18267;52.234;7.444;2023-03-11T03:16:56;1.80;99.90
31661;DHT22;18267;52.234;7.444;2023-03-11T03:19:21;1.90;99.90
31661;DHT22;18267;52.234;7.444;2023-03-11T03:21:47;1.90;99.90
31661;DHT22;18267;52.234;7.444;2023-03-11T03:24:14;1.90;99.90
31661;DHT22;18267;52.234;7.444;2023-03-11T03:26:39;1.90;99.90
31661;DHT22;18267;52.234;7.444;2023-03-11T03:29:05;1.90;99.90
31661;DHT22;18267;52.234;7.444;2023-03-11T03:31:31;2.00;99.90
31661;DHT22;18267;52.234;7.444;2023-03-11T03:33:56;2.00;99.90
31661;DHT22;18267;52.234;7.444;2023-03-11T03:36:22;2.00;99.90
31661;DHT22;18267;52.234;7.444;2023-03-11T03:38:52;1.90;99.90
31661;DHT22;18267;52.234;7.444;2023-03-11T03:41:17;2.00;99.90
31661;DHT22;18267;52.234;7.444;2023-03-11T03:43:43;2.00;99.90
31661;DHT22;18267;52.234;7.444;2023-03-11T03:46:08;1.90;99.90
31661;DHT22;18267;52.234;7.444;2023-03-11T03:48:34;1.90;99.90
31661;DHT22;18267;52.234;7.444;2023-03-11T03:51:05;1.90;99.90
31661;DHT22;18267;52.234;7.444;2023-03-11T03:53:34;2.00;99.90
31661;DHT22;18267;52.234;7.444;2023-03-11T03:56:08;2.00;99.90
31661;DHT22;18267;52.234;7.444;2023-03-11T03:58:33;1.90;99.90
31661;DHT22;18267;52.234;7.444;2023-03-11T04:00:59;1.90;99.90
31661;DHT22;18267;52.234;7.444;2023-03-11T04:03:26;1.90;99.90
31661;DHT22;18267;52.234;7.444;2023-03-11T04:05:52;2.00;99.90
31661;DHT22;18267;52.234;7.444;2023-03-11T04:08:18;1.90;99.90
31661;DHT22;18267;52.234;7.444;2023-03-11T04:10:47;1.90;99.90
31661;DHT22;18267;52.234;7.444;2023-03-11T04:13:20;2.00;99.90
31661;DHT22;18267;52.234;7.444;2023-03-11T04:15:45;1.90;99.90
31661;DHT22;18267;52.234;7.444;2023-03-11T04:18:11;1.90;99.90
31661;DHT22;18267;52.234;7.444;2023-03-11T04:20:38;2.00;99.90
31661;DHT22;18267;52.234;7.444;2023-03-11T04:23:03;2.00;99.90
31661;DHT22;18267;52.234;7.444;2023-03-11T04:25:29;1.90;99.90
31661;DHT22;18267;52.234;7.444;2023-03-11T04:27:54;1.90;99.90
31661;DHT22;18267;52.234;7.444;2023-03-11T04:30:20;2.00;99.90
31661;DHT22;18267;52.234;7.444;2023-03-11T04:32:46;2.00;99.90
31661;DHT22;18267;52.234;7.444;2023-03-11T04:35:11;2.00;99.90
31661;DHT22;18267;52.234;7.444;2023-03-11T04:37:37;1.90;99.90
31661;DHT22;18267;52.234;7.444;2023-03-11T04:40:03;1.90;99.90
31661;DHT22;18267;52.234;7.444;2023-03-11T04:42:30;1.90;99.90
31661;DHT22;18267;52.234;7.444;2023-03-11T04:44:55;1.90;99.90
31661;DHT22;18267;52.234;7.444;2023-03-11T04:47:21;1.90;99.90
31661;DHT22;18267;52.234;7.444;2023-03-11T04:49:47;1.80;99.90
31661;DHT22;18267;52.234;7.444;2023-03-11T04:52:12;1.70;99.90
31661;DHT22;18267;52.234;7.444;2023-03-11T04:54:38;1.70;99.90
31661;DHT22;18267;52.234;7.444;2023-03-11T04:57:03;1.70;99.90
31661;DHT22;18267;52.234;7.444;2023-03-11T04:59:29;1.70;99.90
31661;DHT22;18267;52.234;7.444;2023-03-11T05:01:55;1.80;99.90
31661;DHT22;18267;52.234;7.444;2023-03-11T05:04:20;1.80;99.90
31661;DHT22;18267;52.234;7.444;2023-03-11T05:06:46;1.80;99.90
31661;DHT22;18267;52.234;7.444;2023-03-11T05:09:11;1.70;99.90
31661;DHT22;18267;52.234;7.444;2023-03-11T05:11:37;1.70;99.90
31661;DHT22;18267;52.234;7.444;2023-03-11T05:14:02;1.70;99.90
31661;DHT22;18267;52.234;7.444;2023-03-11T05:16:28;1.60;99.90
31661;DHT22;18267;52.234;7.444;2023-03-11T05:18:53;1.60;99.90
31661;DHT22;18267;52.234;7.444;2023-03-11T05:21:19;1.60;99.90
31661;DHT22;18267;52.234;7.444;2023-03-11T05:23:44;1.60;99.90
31661;DHT22;18267;52.234;7.444;2023-03-11T05:26:10;1.50;99.90
31661;DHT22;18267;52.234;7.444;2023-03-11T05:28:36;1.50;99.90
31661;DHT22;18267;52.234;7.444;2023-03-11T05:31:06;1.40;99.90
31661;DHT22;18267;52.234;7.444;2023-03-11T05:33:31;1.50;99.90
31661;DHT22;18267;52.234;7.444;2023-03-11T05:36:07;1.40;99.90
31661;DHT22;18267;52.234;7.444;2023-03-11T05:38:34;1.40;99.90
31661;DHT22;18267;52.234;7.444;2023-03-11T05:41:00;1.30;99.90
31661;DHT22;18267;52.234;7.444;2023-03-11T05:43:26;1.40;99.90
31661;DHT22;18267;52.234;7.444;2023-03-11T05:45:51;1.40;99.90
31661;DHT22;18267;52.234;7.444;2023-03-11T05:48:17;1.40;99.90
31661;DHT22;18267;52.234;7.444;2023-03-11T05:50:42;1.30;99.90
31661;DHT22;18267;52.234;7.444;2023-03-11T05:53:08;1.30;99.90
31661;DHT22;18267;52.234;7.444;2023-03-11T05:55:33;1.20;99.90
31661;DHT22;18267;52.234;7.444;2023-03-11T05:57:59;1.20;99.90
31661;DHT22;18267;52.234;7.444;2023-03-11T06:00:24;1.10;99.90
31661;DHT22;18267;52.234;7.444;2023-03-11T06:02:53;1.10;99.90
31661;DHT22;18267;52.234;7.444;2023-03-11T06:05:19;1.20;99.90
31661;DHT22;18267;52.234;7.444;2023-03-11T06:07:45;1.10;99.90
31661;DHT22;18267;52.234;7.444;2023-03-11T06:10:11;1.10;99.90
31661;DHT22;18267;52.234;7.444;2023-03-11T06:12:36;1.10;99.90
31661;DHT22;18267;52.234;7.444;2023-03-11T06:15:04;1.10;99.90
31661;DHT22;18267;52.234;7.444;2023-03-11T06:17:31;1.20;99.90
31661;DHT22;18267;52.234;7.444;2023-03-11T06:19:56;1.20;99.90
31661;DHT22;18267;52.234;7.444;2023-03-11T06:22:22;1.20;99.90
31661;DHT22;18267;52.234;7.444;2023-03-11T06:24:47;1.30;99.90
31661;DHT22;18267;52.234;7.444;2023-03-11T06:27:13;1.20;99.90
31661;DHT22;18267;52.234;7.444;2023-03-11T06:29:38;1.30;99.90
31661;DHT22;18267;52.234;7.444;2023-03-11T06:32:05;1.30;99.90
31661;DHT22;18267;52.234;7.444;2023-03-11T06:34:30;1.30;99.90
31661;DHT22;18267;52.234;7.444;2023-03-11T06:36:56;1.30;99.90
31661;DHT22;18267;52.234;7.444;2023-03-11T06:39:23;1.30;99.90
31661;DHT22;18267;52.234;7.444;2023-03-11T06:41:49;1.30;99.90
31661;DHT22;18267;52.234;7.444;2023-03-11T06:44:14;1.40;99.90
31661;DHT22;18267;52.234;7.444;2023-03-11T06:46:40;1.30;99.90
31661;DHT22;18267;52.234;7.444;2023-03-11T06:49:06;1.40;99.90
31661;DHT22;18267;52.234;7.444;2023-03-11T06:51:31;1.40;99.90
31661;DHT22;18267;52.234;7.444;2023-03-11T06:53:57;1.40;99.90
31661;DHT22;18267;52.234;7.444;2023-03-11T06:56:22;1.40;99.90
31661;DHT22;18267;52.234;7.444;2023-03-11T06:58:48;1.40;99.90
31661;DHT22;18267;52.234;7.444;2023-03-11T07:01:19;1.50;99.90
31661;DHT22;18267;52.234;7.444;2023-03-11T07:03:46;1.60;99.90
31661;DHT22;18267;52.234;7.444;2023-03-11T07:06:17;1.50;99.90
31661;DHT22;18267;52.234;7.444;2023-03-11T07:08:43;1.50;99.90
31661;DHT22;18267;52.234;7.444;2023-03-11T07:11:18;1.50;99.90
31661;DHT22;18267;52.234;7.444;2023-03-11T07:13:45;1.60;99.90
31661;DHT22;18267;52.234;7.444;2023-03-11T07:16:22;1.60;99.90
31661;DHT22;18267;52.234;7.444;2023-03-11T07:18:49;1.70;99.90
31661;DHT22;18267;52.234;7.444;2023-03-11T07:21:17;1.60;99.90
31661;DHT22;18267;52.234;7.444;2023-03-11T07:23:43;1.70;99.90
31661;DHT22;18267;52.234;7.444;2023-03-11T07:26:10;1.70;99.90
31661;DHT22;18267;52.234;7.444;2023-03-11T07:28:37;1.70;99.90
31661;DHT22;18267;52.234;7.444;2023-03-11T07:31:07;1.80;99.90
31661;DHT22;18267;52.234;7.444;2023-03-11T07:33:33;1.70;99.90
31661;DHT22;18267;52.234;7.444;2023-03-11T07:35:58;1.60;99.90
31661;DHT22;18267;52.234;7.444;2023-03-11T07:38:24;1.70;99.90
31661;DHT22;18267;52.234;7.444;2023-03-11T07:40:57;1.70;99.90
31661;DHT22;18267;52.234;7.444;2023-03-11T07:43:23;1.80;99.90
31661;DHT22;18267;52.234;7.444;2023-03-11T07:45:48;1.80;99.90
31661;DHT22;18267;52.234;7.444;2023-03-11T07:48:15;1.90;99.90
31661;DHT22;18267;52.234;7.444;2023-03-11T07:50:41;2.00;99.90
31661;DHT22;18267;52.234;7.444;2023-03-11T07:53:07;2.00;99.90
31661;DHT22;18267;52.234;7.444;2023-03-11T07:55:32;2.00;99.90
31661;DHT22;18267;52.234;7.444;2023-03-11T07:57:58;2.10;99.90
31661;DHT22;18267;52.234;7.444;2023-03-11T08:00:23;2.10;99.90
31661;DHT22;18267;52.234;7.444;2023-03-11T08:02:49;2.20;99.90
31661;DHT22;18267;52.234;7.444;2023-03-11T08:05:15;2.30;99.90
31661;DHT22;18267;52.234;7.444;2023-03-11T08:07:41;2.30;99.90
31661;DHT22;18267;52.234;7.444;2023-03-11T08:10:07;2.40;99.90
31661;DHT22;18267;52.234;7.444;2023-03-11T08:12:32;2.50;99.90
31661;DHT22;18267;52.234;7.444;2023-03-11T08:14:58;2.60;99.90
31661;DHT22;18267;52.234;7.444;2023-03-11T08:17:23;2.60;99.90
31661;DHT22;18267;52.234;7.444;2023-03-11T08:19:49;2.60;99.90
31661;DHT22;18267;52.234;7.444;2023-03-11T08:22:15;2.60;99.90
31661;DHT22;18267;52.234;7.444;2023-03-11T08:24:40;2.70;99.90
31661;DHT22;18267;52.234;7.444;2023-03-11T08:27:07;2.70;99.90
31661;DHT22;18267;52.234;7.444;2023-03-11T08:29:34;2.70;99.90
31661;DHT22;18267;52.234;7.444;2023-03-11T08:31:59;2.80;99.90
31661;DHT22;18267;52.234;7.444;2023-03-11T08:34:25;2.80;99.90
31661;DHT22;18267;52.234;7.444;2023-03-11T08:36:52;2.80;99.90
31661;DHT22;18267;52.234;7.444;2023-03-11T08:39:17;2.80;99.90
31661;DHT22;18267;52.234;7.444;2023-03-11T08:41:43;2.80;99.90
31661;DHT22;18267;52.234;7.444;2023-03-11T08:44:09;2.80;99.90
31661;DHT22;18267;52.234;7.444;2023-03-11T08:46:37;2.90;99.90
31661;DHT22;18267;52.234;7.444;2023-03-11T08:49:04;2.90;99.90
31661;DHT22;18267;52.234;7.444;2023-03-11T08:51:33;3.00;99.90
31661;DHT22;18267;52.234;7.444;2023-03-11T08:53:59;3.10;99.90
31661;DHT22;18267;52.234;7.444;2023-03-11T08:56:26;3.20;99.90
31661;DHT22;18267;52.234;7.444;2023-03-11T08:58:52;3.20;99.90
31661;DHT22;18267;52.234;7.444;2023-03-11T09:01:18;3.20;99.90
31661;DHT22;18267;52.234;7.444;2023-03-11T09:03:45;3.30;99.90
31661;DHT22;18267;52.234;7.444;2023-03-11T09:06:16;3.20;99.90
31661;DHT22;18267;52.234;7.444;2023-03-11T09:08:59;3.20;99.90
31661;DHT22;18267;52.234;7.444;2023-03-11T09:11:25;3.30;99.90
31661;DHT22;18267;52.234;7.444;2023-03-11T09:13:51;3.30;99.90
31661;DHT22;18267;52.234;7.444;2023-03-11T09:16:21;3.30;99.90
31661;DHT22;18267;52.234;7.444;2023-03-11T09:18:47;3.40;99.90
31661;DHT22;18267;52.234;7.444;2023-03-11T09:21:13;3.40;99.90
31661;DHT22;18267;52.234;7.444;2023-03-11T09:23:39;3.40;99.90
31661;DHT22;18267;52.234;7.444;2023-03-11T09:26:05;3.40;99.90
31661;DHT22;18267;52.234;7.444;2023-03-11T09:28:31;3.40;99.90
31661;DHT22;18267;52.234;7.444;2023-03-11T09:30:57;3.60;99.90
31661;DHT22;18267;52.234;7.444;2023-03-11T09:33:23;3.60;99.90
31661;DHT22;18267;52.234;7.444;2023-03-11T09:35:48;3.70;99.90
31661;DHT22;18267;52.234;7.444;2023-03-11T09:38:18;3.70;99.90
31661;DHT22;18267;52.234;7.444;2023-03-11T09:52:09;4.00;99.90
31661;DHT22;18267;52.234;7.444;2023-03-11T09:54:47;3.90;99.90
31661;DHT22;18267;52.234;7.444;2023-03-11T09:57:20;3.80;99.90
31661;DHT22;18267;52.234;7.444;2023-03-11T09:59:47;3.90;99.90
31661;DHT22;18267;52.234;7.444;2023-03-11T10:02:21;3.90;99.90
31661;DHT22;18267;52.234;7.444;2023-03-11T10:04:57;3.80;99.90
31661;DHT22;18267;52.234;7.444;2023-03-11T10:07:27;3.90;99.90
31661;DHT22;18267;52.234;7.444;2023-03-11T10:10:12;3.90;99.90
31661;DHT22;18267;52.234;7.444;2023-03-11T10:13:39;3.90;99.90
31661;DHT22;18267;52.234;7.444;2023-03-11T10:18:55;3.90;99.90
31661;DHT22;18267;52.234;7.444;2023-03-11T10:27:28;3.90;99.90
31661;DHT22;18267;52.234;7.444;2023-03-11T10:30:30;3.90;99.90
31661;DHT22;18267;52.234;7.444;2023-03-11T10:33:01;4.00;99.90
31661;DHT22;18267;52.234;7.444;2023-03-11T10:35:37;4.10;99.90
31661;DHT22;18267;52.234;7.444;2023-03-11T10:38:27;4.10;99.90
31661;DHT22;18267;52.234;7.444;2023-03-11T10:41:00;4.00;99.90
31661;DHT22;18267;52.234;7.444;2023-03-11T10:43:31;3.90;99.90
31661;DHT22;18267;52.234;7.444;2023-03-11T10:45:58;3.90;99.90
31661;DHT22;18267;52.234;7.444;2023-03-11T10:48:24;3.90;99.90
31661;DHT22;18267;52.234;7.444;2023-03-11T10:51:15;3.80;99.90
31661;DHT22;18267;52.234;7.444;2023-03-11T10:53:56;3.90;99.90
31661;DHT22;18267;52.234;7.444;2023-03-11T10:56:35;3.90;99.90
31661;DHT22;18267;52.234;7.444;2023-03-11T10:59:02;3.90;99.90
31661;DHT22;18267;52.234;7.444;2023-03-11T11:01:29;4.00;99.90
31661;DHT22;18267;52.234;7.444;2023-03-11T11:03:57;4.00;99.90
31661;DHT22;18267;52.234;7.444;2023-03-11T11:06:33;4.10;99.90
31661;DHT22;18267;52.234;7.444;2023-03-11T11:09:18;4.20;99.90
31661;DHT22;18267;52.234;7.444;2023-03-11T11:14:49;4.30;99.90
31661;DHT22;18267;52.234;7.444;2023-03-11T11:17:22;4.30;99.90
31661;DHT22;18267;52.234;7.444;2023-03-11T11:19:50;4.40;99.90
31661;DHT22;18267;52.234;7.444;2023-03-11T11:22:19;4.40;99.90
31661;DHT22;18267;52.234;7.444;2023-03-11T11:24:50;4.50;99.90
31661;DHT22;18267;52.234;7.444;2023-03-11T11:27:18;4.50;99.90
31661;DHT22;18267;52.234;7.444;2023-03-11T11:29:45;4.60;99.90
31661;DHT22;18267;52.234;7.444;2023-03-11T11:32:23;4.50;99.90
31661;DHT22;18267;52.234;7.444;2023-03-11T11:35:04;4.60;99.90
31661;DHT22;18267;52.234;7.444;2023-03-11T11:37:47;4.70;99.90
31661;DHT22;18267;52.234;7.444;2023-03-11T11:42:43;4.50;99.90
31661;DHT22;18267;52.234;7.444;2023-03-11T11:45:28;4.50;99.90
31661;DHT22;18267;52.234;7.444;2023-03-11T11:47:58;4.50;99.90
31661;DHT22;18267;52.234;7.444;2023-03-11T11:50:33;4.60;99.90
31661;DHT22;18267;52.234;7.444;2023-03-11T11:55:51;4.60;99.90
31661;DHT22;18267;52.234;7.444;2023-03-11T11:58:19;4.60;99.90
31661;DHT22;18267;52.234;7.444;2023-03-11T12:01:02;4.60;99.90
31661;DHT22;18267;52.234;7.444;2023-03-11T12:04:02;4.60;99.90
31661;DHT22;18267;52.234;7.444;2023-03-11T12:17:38;4.20;99.90
31661;DHT22;18267;52.234;7.444;2023-03-11T12:20:29;4.30;99.90
31661;DHT22;18267;52.234;7.444;2023-03-11T12:23:13;4.30;99.90
31661;DHT22;18267;52.234;7.444;2023-03-11T12:28:46;4.50;99.90
31661;DHT22;18267;52.234;7.444;2023-03-11T12:31:15;4.60;99.90
31661;DHT22;18267;52.234;7.444;2023-03-11T12:33:57;4.60;99.90
31661;DHT22;18267;52.234;7.444;2023-03-11T12:36:29;4.60;99.90
31661;DHT22;18267;52.234;7.444;2023-03-11T12:38:57;4.70;99.90
31661;DHT22;18267;52.234;7.444;2023-03-11T12:41:27;4.70;99.90
31661;DHT22;18267;52.234;7.444;2023-03-11T12:43:57;4.70;99.90
31661;DHT22;18267;52.234;7.444;2023-03-11T12:49:22;4.80;99.90
31661;DHT22;18267;52.234;7.444;2023-03-11T12:54:39;4.80;99.90
31661;DHT22;18267;52.234;7.444;2023-03-11T13:00:21;5.10;99.90
31661;DHT22;18267;52.234;7.444;2023-03-11T13:06:13;5.20;99.90
31661;DHT22;18267;52.234;7.444;2023-03-11T13:08:51;5.20;99.90
31661;DHT22;18267;52.234;7.444;2023-03-11T13:14:22;5.40;99.90
31661;DHT22;18267;52.234;7.444;2023-03-11T13:16:50;5.40;99.90
31661;DHT22;18267;52.234;7.444;2023-03-11T13:21:54;5.50;99.90
31661;DHT22;18267;52.234;7.444;2023-03-11T13:40:56;5.30;99.90
31661;DHT22;18267;52.234;7.444;2023-03-11T13:43:24;5.40;99.90
31661;DHT22;18267;52.234;7.444;2023-03-11T13:46:00;5.50;99.90
31661;DHT22;18267;52.234;7.444;2023-03-11T13:48:43;5.50;99.90
31661;DHT22;18267;52.234;7.444;2023-03-11T13:51:21;5.60;99.90
31661;DHT22;18267;52.234;7.444;2023-03-11T13:54:31;5.60;99.90
31661;DHT22;18267;52.234;7.444;2023-03-11T13:57:01;5.70;99.90
31661;DHT22;18267;52.234;7.444;2023-03-11T13:59:32;5.70;99.90
31661;DHT22;18267;52.234;7.444;2023-03-11T14:04:35;5.80;99.90
31661;DHT22;18267;52.234;7.444;2023-03-11T14:07:12;5.80;99.90
31661;DHT22;18267;52.234;7.444;2023-03-11T14:09:38;5.70;99.90
31661;DHT22;18267;52.234;7.444;2023-03-11T14:12:05;5.50;99.90
31661;DHT22;18267;52.234;7.444;2023-03-11T14:14:55;5.50;99.90
31661;DHT22;18267;52.234;7.444;2023-03-11T14:17:22;5.40;99.90
31661;DHT22;18267;52.234;7.444;2023-03-11T14:20:16;5.30;99.90
31661;DHT22;18267;52.234;7.444;2023-03-11T14:22:44;5.40;99.90
31661;DHT22;18267;52.234;7.444;2023-03-11T14:25:19;5.30;99.90
31661;DHT22;18267;52.234;7.444;2023-03-11T14:28:00;5.30;99.90
31661;DHT22;18267;52.234;7.444;2023-03-11T14:30:31;5.40;99.90
31661;DHT22;18267;52.234;7.444;2023-03-11T14:33:03;5.40;99.90
31661;DHT22;18267;52.234;7.444;2023-03-11T14:35:31;5.40;99.90
31661;DHT22;18267;52.234;7.444;2023-03-11T14:38:03;5.50;99.90
31661;DHT22;18267;52.234;7.444;2023-03-11T14:40:36;5.50;99.90
31661;DHT22;18267;52.234;7.444;2023-03-11T14:43:07;5.50;99.90
31661;DHT22;18267;52.234;7.444;2023-03-11T14:45:35;5.40;99.90
31661;DHT22;18267;52.234;7.444;2023-03-11T14:48:17;5.40;99.90
31661;DHT22;18267;52.234;7.444;2023-03-11T14:50:47;5.40;99.90
31661;DHT22;18267;52.234;7.444;2023-03-11T14:55:58;5.40;99.90
31661;DHT22;18267;52.234;7.444;2023-03-11T14:58:45;5.30;99.90
31661;DHT22;18267;52.234;7.444;2023-03-11T15:01:17;5.10;99.90
31661;DHT22;18267;52.234;7.444;2023-03-11T15:03:56;5.20;99.90
31661;DHT22;18267;52.234;7.444;2023-03-11T15:06:26;5.30;99.90
31661;DHT22;18267;52.234;7.444;2023-03-11T15:09:07;5.30;99.90
31661;DHT22;18267;52.234;7.444;2023-03-11T15:11:49;5.40;99.90
31661;DHT22;18267;52.234;7.444;2023-03-11T15:16:51;5.40;99.90
31661;DHT22;18267;52.234;7.444;2023-03-11T15:21:53;5.10;99.90
31661;DHT22;18267;52.234;7.444;2023-03-11T15:24:21;5.10;99.90
31661;DHT22;18267;52.234;7.444;2023-03-11T15:27:05;5.20;99.90
31661;DHT22;18267;52.234;7.444;2023-03-11T15:29:32;5.20;99.90
31661;DHT22;18267;52.234;7.444;2023-03-11T15:31:58;5.20;99.90
31661;DHT22;18267;52.234;7.444;2023-03-11T15:34:31;5.20;99.90
31661;DHT22;18267;52.234;7.444;2023-03-11T15:36:59;5.40;99.90
31661;DHT22;18267;52.234;7.444;2023-03-11T15:42:13;5.40;99.90
31661;DHT22;18267;52.234;7.444;2023-03-11T15:45:01;5.40;99.90
31661;DHT22;18267;52.234;7.444;2023-03-11T15:47:27;5.30;99.90
31661;DHT22;18267;52.234;7.444;2023-03-11T15:50:05;5.30;99.90
31661;DHT22;18267;52.234;7.444;2023-03-11T15:52:37;5.10;99.90
31661;DHT22;18267;52.234;7.444;2023-03-11T15:55:02;5.10;99.90
31661;DHT22;18267;52.234;7.444;2023-03-11T15:57:28;5.10;99.90
31661;DHT22;18267;52.234;7.444;2023-03-11T15:59:57;5.00;99.90
31661;DHT22;18267;52.234;7.444;2023-03-11T16:02:25;5.00;99.90
31661;DHT22;18267;52.234;7.444;2023-03-11T16:04:52;5.10;99.90
31661;DHT22;18267;52.234;7.444;2023-03-11T16:07:17;5.10;99.90
31661;DHT22;18267;52.234;7.444;2023-03-11T16:09:43;5.10;99.90
31661;DHT22;18267;52.234;7.444;2023-03-11T16:12:19;5.10;99.90
31661;DHT22;18267;52.234;7.444;2023-03-11T16:14:46;5.10;99.90
31661;DHT22;18267;52.234;7.444;2023-03-11T16:17:13;5.00;99.90
31661;DHT22;18267;52.234;7.444;2023-03-11T16:19:43;5.10;99.90
31661;DHT22;18267;52.234;7.444;2023-03-11T16:22:28;5.00;99.90
31661;DHT22;18267;52.234;7.444;2023-03-11T16:24:55;5.00;99.90
31661;DHT22;18267;52.234;7.444;2023-03-11T16:27:21;5.00;99.90
31661;DHT22;18267;52.234;7.444;2023-03-11T16:29:46;5.00;99.90
31661;DHT22;18267;52.234;7.444;2023-03-11T16:32:12;5.00;99.90
31661;DHT22;18267;52.234;7.444;2023-03-11T16:34:40;5.00;99.90
31661;DHT22;18267;52.234;7.444;2023-03-11T16:37:06;5.00;99.90
31661;DHT22;18267;52.234;7.444;2023-03-11T16:39:33;5.00;99.90
31661;DHT22;18267;52.234;7.444;2023-03-11T16:41:59;4.90;99.90
31661;DHT22;18267;52.234;7.444;2023-03-11T16:44:25;4.90;99.90
31661;DHT22;18267;52.234;7.444;2023-03-11T16:46:51;4.90;99.90
31661;DHT22;18267;52.234;7.444;2023-03-11T16:49:16;4.90;99.90
31661;DHT22;18267;52.234;7.444;2023-03-11T16:51:42;4.90;99.90
31661;DHT22;18267;52.234;7.444;2023-03-11T16:54:07;4.90;99.90
31661;DHT22;18267;52.234;7.444;2023-03-11T16:56:34;4.80;99.90
31661;DHT22;18267;52.234;7.444;2023-03-11T16:59:00;4.80;99.90
31661;DHT22;18267;52.234;7.444;2023-03-11T17:01:27;4.80;99.90
31661;DHT22;18267;52.234;7.444;2023-03-11T17:03:52;4.70;99.90
31661;DHT22;18267;52.234;7.444;2023-03-11T17:06:19;4.70;99.90
31661;DHT22;18267;52.234;7.444;2023-03-11T17:08:45;4.70;99.90
31661;DHT22;18267;52.234;7.444;2023-03-11T17:11:20;4.70;99.90
31661;DHT22;18267;52.234;7.444;2023-03-11T17:13:46;4.70;99.90
31661;DHT22;18267;52.234;7.444;2023-03-11T17:16:14;4.70;99.90
31661;DHT22;18267;52.234;7.444;2023-03-11T17:18:40;4.60;99.90
31661;DHT22;18267;52.234;7.444;2023-03-11T17:21:12;4.60;99.90
31661;DHT22;18267;52.234;7.444;2023-03-11T17:23:38;4.60;99.90
31661;DHT22;18267;52.234;7.444;2023-03-11T17:26:16;4.50;99.90
31661;DHT22;18267;52.234;7.444;2023-03-11T17:28:45;4.50;99.90
31661;DHT22;18267;52.234;7.444;2023-03-11T17:31:14;4.40;99.90
31661;DHT22;18267;52.234;7.444;2023-03-11T17:33:40;4.40;99.90
31661;DHT22;18267;52.234;7.444;2023-03-11T17:36:08;4.30;99.90